KCMH/CMH METAR and TAF weather

Enter ICAO airport designator
Station Type Date Time Source
KCMH METAR 2018/12/12 15:51 UTC NOAA

KCMH 121551Z 15007KT 10SM BKN120 BKN150 OVC200 02/M04 A3003 RMK AO2 SLP178 T00221044


Station Type Date Time Source
KCMH Decoded METAR 2018/12/12 15:51 UTC NOAA

PORT COLUMBUS INTERNATIONAL AIRPORT, OH, United States (KCMH) 40-00N 82-53W 247M
Dec 12, 2018 - 10:51 AM EST / 2018.12.12 1551 UTC
Wind: from the SSE (150 degrees) at 8 MPH (7 KT):0
Visibility: 10 mile(s):0
Sky conditions: overcast
Temperature: 36.0 F (2.2 C)
Dew Point: 24.1 F (-4.4 C)
Relative Humidity: 61%
Pressure (altimeter): 30.03 in. Hg (1016 hPa)
ob: KCMH 121551Z 15007KT 10SM BKN120 BKN150 OVC200 02/M04 A3003 RMK AO2 SLP178 T00221044
cycle: 16

Station Type Date Time Source
KCMH TAF 2018/12/12 12:33 UTC NOAA

TAF KCMH 121130Z 1212/1312 16006KT P6SM OVC200
FM121800 17012KT P6SM SCT050 OVC200
FM122300 19008KT P6SM BKN050
FM130600 22004KT P6SM BKN025
FM131000 VRB03KT 4SM BR OVC008


Example: see airport list